Time;durP1;ratioP1;P1;durP2;ratioP2;P2;SDS_P1;SDS_P2;PMS_P1;PMS_P2;Temp;Humidity;BMP_temperature;BMP_pressure;BME280_temperature;BME280_humidity;BME280_pressure;Samples;Min_cycle;Max_cycle;Signal;HPM_P1;HPM_P2
2021/04/10 00:01:08;;;;;;;25.13;10.70;;;;;;;8.15;100.00;101146.78;5222012;28;20021;-78
2021/04/10 00:03:39;;;;;;;21.70;10.15;;;;;;;8.13;100.00;101137.19;5227706;28;20059;-78
2021/04/10 00:06:10;;;;;;;22.60;9.93;;;;;;;8.10;100.00;101143.69;5227508;28;20040;-78
2021/04/10 00:08:40;;;;;;;22.02;10.73;;;;;;;8.10;100.00;101140.19;5227711;28;20009;-78
2021/04/10 00:11:11;;;;;;;23.80;10.50;;;;;;;8.06;100.00;101142.28;5227731;28;20035;-79
2021/04/10 00:13:41;;;;;;;24.30;9.30;;;;;;;8.03;100.00;101138.09;5227792;28;20021;-79
2021/04/10 00:16:12;;;;;;;22.90;10.40;;;;;;;8.00;100.00;101138.34;5227499;28;20032;-78
2021/04/10 00:18:43;;;;;;;22.52;9.75;;;;;;;8.04;100.00;101141.59;5227191;28;20108;-78
2021/04/10 00:21:13;;;;;;;21.52;9.95;;;;;;;8.05;100.00;101138.78;5227107;28;20104;-80
2021/04/10 00:23:43;;;;;;;21.00;10.32;;;;;;;8.02;100.00;101136.38;5227350;28;20025;-79
2021/04/10 00:26:14;;;;;;;18.35;10.30;;;;;;;7.93;100.00;101134.59;5227373;28;20040;-78
2021/04/10 00:28:45;;;;;;;26.98;10.73;;;;;;;7.83;100.00;101136.41;5227038;28;20025;-78
2021/04/10 00:31:15;;;;;;;22.30;11.88;;;;;;;7.78;100.00;101141.31;5226732;28;20375;-80
2021/04/10 00:33:46;;;;;;;26.08;10.57;;;;;;;7.80;100.00;101131.34;5226974;28;20381;-78
2021/04/10 00:36:17;;;;;;;21.85;10.57;;;;;;;7.83;100.00;101125.72;5227016;28;20039;-78
2021/04/10 00:38:47;;;;;;;24.42;9.93;;;;;;;7.81;100.00;101119.66;5226979;28;20104;-78
2021/04/10 00:41:18;;;;;;;22.60;11.00;;;;;;;7.78;100.00;101125.28;5226738;28;20024;-79
2021/04/10 00:43:49;;;;;;;21.75;11.45;;;;;;;7.74;100.00;101122.06;5226696;28;20024;-78
2021/04/10 00:46:19;;;;;;;22.75;10.50;;;;;;;7.73;100.00;101123.06;5226979;28;20025;-79
2021/04/10 00:48:49;;;;;;;23.58;11.60;;;;;;;7.74;100.00;101130.09;5227120;28;20462;-79
2021/04/10 00:51:20;;;;;;;24.20;10.90;;;;;;;7.77;100.00;101120.94;5226525;28;20639;-79
2021/04/10 00:53:51;;;;;;;22.17;11.75;;;;;;;7.82;100.00;101125.84;5226671;28;20505;-78
2021/04/10 00:56:21;;;;;;;27.60;11.88;;;;;;;7.86;100.00;101133.44;5226808;28;20297;-78
2021/04/10 00:58:52;;;;;;;24.40;11.18;;;;;;;7.82;100.00;101137.38;5226758;28;20036;-78
2021/04/10 01:01:23;;;;;;;21.50;10.68;;;;;;;7.81;100.00;101133.03;5226409;28;20033;-79
2021/04/10 01:03:54;;;;;;;21.63;10.15;;;;;;;7.77;100.00;101132.47;5227145;28;20390;-78
2021/04/10 01:06:33;;;;;;;23.35;11.23;;;;;;;7.75;100.00;101133.59;5226462;28;20508;-78
2021/04/10 01:09:04;;;;;;;20.33;10.65;;;;;;;7.78;100.00;101122.63;5226825;28;20029;-78
2021/04/10 01:11:48;;;;;;;22.45;10.88;;;;;;;7.75;100.00;101129.09;5226724;28;20028;-78
2021/04/10 01:14:27;;;;;;;26.08;12.05;;;;;;;7.76;100.00;101130.78;5222319;28;20481;-78
2021/04/10 01:17:09;;;;;;;24.92;11.00;;;;;;;7.69;100.00;101128.81;5226304;28;20033;-78
2021/04/10 01:20:07;;;;;;;28.08;12.10;;;;;;;7.75;100.00;101114.91;5226424;28;20033;-78
2021/04/10 01:22:44;;;;;;;25.27;11.23;;;;;;;7.69;100.00;101113.66;5226259;28;20024;-78
2021/04/10 01:25:29;;;;;;;25.83;11.07;;;;;;;7.73;100.00;101115.06;5226331;28;20028;-78
2021/04/10 01:28:07;;;;;;;24.80;11.30;;;;;;;7.65;100.00;101128.25;5226931;28;20029;-78
2021/04/10 01:30:48;;;;;;;23.67;11.32;;;;;;;7.52;100.00;101127.69;5226276;28;20108;-78
2021/04/10 01:33:23;;;;;;;25.55;11.48;;;;;;;7.49;100.00;101128.81;5225948;28;20424;-78
2021/04/10 01:35:58;;;;;;;25.45;11.73;;;;;;;7.43;100.00;101126.72;5213681;28;20036;-79
2021/04/10 01:38:31;;;;;;;24.65;11.63;;;;;;;7.43;100.00;101137.38;5226132;28;20032;-79
2021/04/10 01:41:05;;;;;;;26.20;10.82;;;;;;;7.53;100.00;101146.25;5225753;28;20163;-78
2021/04/10 01:43:37;;;;;;;22.33;10.90;;;;;;;7.39;100.00;101138.63;5226031;28;20048;-78
2021/04/10 01:46:09;;;;;;;23.25;11.38;;;;;;;7.31;100.00;101140.31;5225649;28;20024;-79
2021/04/10 01:48:47;;;;;;;21.23;10.45;;;;;;;7.29;100.00;101132.44;5225920;28;20020;-79
2021/04/10 01:51:30;;;;;;;27.25;11.32;;;;;;;7.25;100.00;101145.22;5225825;28;20028;-79
2021/04/10 01:54:03;;;;;;;24.60;11.85;;;;;;;7.22;100.00;101149.97;5225939;28;20039;-79
2021/04/10 01:56:44;;;;;;;29.85;11.07;;;;;;;7.15;100.00;101151.50;5225680;28;20036;-78
2021/04/10 01:59:15;;;;;;;24.50;11.18;;;;;;;7.08;100.00;101153.88;5225657;28;20055;-78
2021/04/10 02:01:48;;;;;;;24.30;11.80;;;;;;;7.03;100.00;101145.44;5224179;28;20025;-78
2021/04/10 02:04:19;;;;;;;25.15;12.65;;;;;;;6.97;100.00;101152.16;5225838;28;20044;-78
2021/04/10 02:06:51;;;;;;;23.42;11.00;;;;;;;7.10;100.00;101154.59;5225472;28;20059;-78
2021/04/10 02:09:24;;;;;;;25.40;12.05;;;;;;;7.11;100.00;101150.09;5225078;28;20028;-78
2021/04/10 02:11:56;;;;;;;28.98;11.95;;;;;;;7.22;100.00;101142.81;5225487;28;20036;-79
2021/04/10 02:14:29;;;;;;;28.00;13.27;;;;;;;7.20;100.00;101141.28;5225214;28;20394;-79
2021/04/10 02:17:01;;;;;;;24.90;12.18;;;;;;;7.11;100.00;101156.28;5225219;28;20106;-78
2021/04/10 02:19:31;;;;;;;29.40;12.32;;;;;;;6.95;100.00;101161.28;5224686;28;20029;-80
2021/04/10 02:22:04;;;;;;;28.95;12.23;;;;;;;6.92;100.00;101167.72;5225067;28;20017;-78
2021/04/10 02:24:34;;;;;;;30.58;12.98;;;;;;;6.87;100.00;101174.44;5224163;28;20031;-78
2021/04/10 02:27:05;;;;;;;32.38;12.63;;;;;;;6.94;100.00;101165.78;5225218;28;20386;-78
2021/04/10 02:29:36;;;;;;;40.65;14.48;;;;;;;6.96;100.00;101161.13;5225006;28;20076;-79
2021/04/10 02:32:12;;;;;;;36.78;14.88;;;;;;;7.02;100.00;101165.06;5224665;28;20052;-79
2021/04/10 02:34:50;;;;;;;30.67;13.15;;;;;;;6.95;100.00;101166.63;5225073;28;20025;-79
2021/04/10 02:37:21;;;;;;;28.33;13.73;;;;;;;6.96;100.00;101157.63;5224936;28;20029;-79
2021/04/10 02:39:52;;;;;;;35.63;15.93;;;;;;;6.87;100.00;101155.75;5224799;28;20029;-78
2021/04/10 02:42:27;;;;;;;41.95;17.20;;;;;;;6.92;100.00;101166.88;5224429;28;20060;-79
2021/04/10 02:45:02;;;;;;;44.55;15.00;;;;;;;6.90;100.00;101168.84;5224773;28;20107;-78
2021/04/10 02:47:35;;;;;;;37.67;16.60;;;;;;;6.89;100.00;101165.34;5224514;28;20029;-79
2021/04/10 02:50:07;;;;;;;41.53;16.58;;;;;;;6.85;100.00;101176.41;5224721;28;20051;-78
2021/04/10 02:52:42;;;;;;;45.28;17.58;;;;;;;6.79;100.00;101185.78;5223576;28;20055;-79
2021/04/10 02:55:17;;;;;;;45.67;17.60;;;;;;;6.77;100.00;101189.53;5223187;28;20025;-79
2021/04/10 02:57:49;;;;;;;50.50;17.50;;;;;;;6.82;100.00;101187.31;5224693;28;20294;-79
2021/04/10 03:00:20;;;;;;;43.65;18.10;;;;;;;6.73;100.00;101186.31;5224536;28;20048;-78
2021/04/10 03:02:51;;;;;;;45.85;18.58;;;;;;;6.69;100.00;101193.72;5224570;28;20029;-79
2021/04/10 03:05:22;;;;;;;49.20;18.63;;;;;;;6.74;100.00;101191.50;5224490;28;20031;-79
2021/04/10 03:07:53;;;;;;;51.92;19.08;;;;;;;6.75;100.00;101192.34;5224458;28;20470;-79
2021/04/10 03:10:24;;;;;;;45.33;18.95;;;;;;;6.75;100.00;101181.69;5224341;28;20024;-78
2021/04/10 03:12:56;;;;;;;51.72;20.38;;;;;;;6.69;100.00;101174.22;5219407;28;20052;-78
2021/04/10 03:15:26;;;;;;;46.13;19.92;;;;;;;6.66;100.00;101177.16;5224356;28;20060;-78
2021/04/10 03:17:57;;;;;;;49.17;18.88;;;;;;;6.62;100.00;101181.88;5224317;28;20464;-79
2021/04/10 03:20:28;;;;;;;50.72;20.98;;;;;;;6.55;100.00;101183.41;5224187;28;20029;-78
2021/04/10 03:22:59;;;;;;;52.15;20.55;;;;;;;6.56;100.00;101178.91;5224457;28;20029;-78
2021/04/10 03:25:29;;;;;;;47.75;20.23;;;;;;;6.55;100.00;101179.91;5224569;28;20021;-77
2021/04/10 03:28:00;;;;;;;54.45;20.35;;;;;;;6.54;100.00;101184.41;5224255;28;20071;-78
2021/04/10 03:30:31;;;;;;;49.47;19.20;;;;;;;6.53;100.00;101180.03;5224072;28;20029;-80
2021/04/10 03:33:03;;;;;;;53.08;21.58;;;;;;;6.47;100.00;101180.53;5224179;28;20025;-77
2021/04/10 03:35:33;;;;;;;66.35;21.95;;;;;;;6.45;100.00;101178.03;5224020;28;20033;-77
2021/04/10 03:38:04;;;;;;;51.15;19.73;;;;;;;6.44;100.00;101184.34;5224773;28;20531;-77
2021/04/10 03:40:35;;;;;;;53.72;20.33;;;;;;;6.41;100.00;101181.91;5222393;28;20032;-78
2021/04/10 03:43:05;;;;;;;56.22;20.15;;;;;;;6.37;100.00;101169.00;5224237;28;20371;-78
2021/04/10 03:45:36;;;;;;;48.15;21.00;;;;;;;6.38;100.00;101173.38;5224308;28;20029;-77
2021/04/10 03:48:07;;;;;;;58.10;20.85;;;;;;;6.38;100.00;101174.22;5224685;28;20025;-77
2021/04/10 03:50:38;;;;;;;52.35;21.92;;;;;;;6.39;100.00;101183.03;5224301;28;20033;-80
2021/04/10 03:53:08;;;;;;;52.83;20.05;;;;;;;6.38;100.00;101184.03;5223712;28;20033;-77
2021/04/10 03:55:39;;;;;;;44.25;19.40;;;;;;;6.38;100.00;101190.19;5224154;28;20025;-77
2021/04/10 03:58:10;;;;;;;47.65;19.65;;;;;;;6.36;100.00;101188.63;5224993;28;20210;-78
2021/04/10 04:00:40;;;;;;;52.10;21.10;;;;;;;6.33;100.00;101186.25;5228288;28;20024;-78
2021/04/10 04:03:11;;;;;;;53.00;20.58;;;;;;;6.32;100.00;101188.03;5227687;28;20037;-79
2021/04/10 04:05:42;;;;;;;52.38;21.30;;;;;;;6.33;100.00;101188.91;5227525;28;20051;-78
2021/04/10 04:08:12;;;;;;;46.15;19.08;;;;;;;6.30;100.00;101192.66;5227676;28;20071;-78
2021/04/10 04:10:42;;;;;;;44.15;18.55;;;;;;;6.32;100.00;101200.50;5227604;28;20487;-78
2021/04/10 04:13:13;;;;;;;52.25;20.33;;;;;;;6.31;100.00;101198.81;5227436;28;20036;-77
2021/04/10 04:15:43;;;;;;;46.40;19.30;;;;;;;6.32;100.00;101200.50;5227533;28;20031;-78
2021/04/10 04:18:14;;;;;;;52.67;19.10;;;;;;;6.33;100.00;101197.75;5226187;28;20124;-78
2021/04/10 04:20:45;;;;;;;52.28;18.58;;;;;;;6.32;100.00;101189.84;5227586;28;20020;-77
2021/04/10 04:23:15;;;;;;;46.15;18.55;;;;;;;6.26;100.00;101188.56;5227403;28;20032;-78
2021/04/10 04:25:46;;;;;;;46.42;18.00;;;;;;;6.25;100.00;101191.34;5227512;28;20021;-77
2021/04/10 04:28:17;;;;;;;45.22;18.50;;;;;;;6.22;100.00;101190.66;5227439;28;20029;-78
2021/04/10 04:30:47;;;;;;;47.35;17.80;;;;;;;6.22;100.00;101195.13;5226773;28;20021;-78
2021/04/10 04:33:18;;;;;;;44.17;17.63;;;;;;;6.21;100.00;101177.44;5227366;28;20544;-78
2021/04/10 04:35:48;;;;;;;41.35;17.38;;;;;;;6.16;100.00;101172.50;5226928;28;20036;-78
2021/04/10 04:38:19;;;;;;;50.03;17.40;;;;;;;6.14;100.00;101181.63;5227127;28;20025;-78
2021/04/10 04:40:49;;;;;;;43.63;17.45;;;;;;;6.13;100.00;101182.59;5226966;28;20036;-78
2021/04/10 04:43:19;;;;;;;40.78;17.27;;;;;;;6.11;100.00;101184.53;5226881;28;20028;-77
2021/04/10 04:45:50;;;;;;;49.10;17.55;;;;;;;6.09;100.00;101191.81;5227820;28;20017;-78
2021/04/10 04:48:20;;;;;;;39.58;15.85;;;;;;;6.06;100.00;101184.91;5225838;28;20021;-78
2021/04/10 04:50:51;;;;;;;37.97;16.20;;;;;;;6.09;100.00;101187.31;5226951;28;20094;-78
2021/04/10 04:53:22;;;;;;;45.38;16.73;;;;;;;6.08;100.00;101193.63;5226581;28;20031;-78
2021/04/10 04:55:52;;;;;;;36.97;15.25;;;;;;;6.07;100.00;101199.91;5226839;28;20402;-78
2021/04/10 04:58:23;;;;;;;40.28;16.23;;;;;;;6.08;100.00;101209.63;5226760;28;20025;-79
2021/04/10 05:00:53;;;;;;;52.42;17.08;;;;;;;6.09;100.00;101207.78;5226697;28;20036;-78
2021/04/10 05:03:24;;;;;;;45.33;16.60;;;;;;;6.09;100.00;101216.63;5226761;28;20031;-79
2021/04/10 05:05:54;;;;;;;42.42;17.05;;;;;;;6.12;100.00;101216.34;5226381;28;20517;-78
2021/04/10 05:08:25;;;;;;;42.85;15.63;;;;;;;6.14;100.00;101219.75;5224837;28;20024;-78
2021/04/10 05:10:55;;;;;;;40.13;16.70;;;;;;;6.18;100.00;101221.19;5220203;28;20103;-79
2021/04/10 05:13:26;;;;;;;53.05;16.95;;;;;;;6.19;100.00;101216.69;5221917;28;20408;-78
2021/04/10 05:15:57;;;;;;;40.65;15.57;;;;;;;6.19;100.00;101222.03;5226644;28;20553;-77
2021/04/10 05:18:28;;;;;;;40.67;15.15;;;;;;;6.16;100.00;101231.13;5226154;28;20079;-78
2021/04/10 05:20:58;;;;;;;42.95;15.98;;;;;;;6.20;100.00;101227.22;5226132;28;20028;-78
2021/04/10 05:23:29;;;;;;;42.15;14.75;;;;;;;6.21;100.00;101225.41;5226438;28;20032;-78
2021/04/10 05:25:59;;;;;;;42.47;14.27;;;;;;;6.21;100.00;101226.25;5226913;28;20474;-79
2021/04/10 05:28:29;;;;;;;37.15;15.15;;;;;;;6.22;100.00;101235.06;5226346;28;20025;-78
2021/04/10 05:31:01;;;;;;;42.17;14.63;;;;;;;6.21;100.00;101233.41;5225961;28;20087;-79
2021/04/10 05:33:32;;;;;;;35.90;14.85;;;;;;;6.21;100.00;101236.91;5226252;28;20386;-78
2021/04/10 05:36:03;;;;;;;40.35;15.23;;;;;;;6.21;100.00;101230.72;5226399;28;20029;-78
2021/04/10 05:38:33;;;;;;;41.03;14.05;;;;;;;6.21;100.00;101231.56;5226279;28;20494;-80
2021/04/10 05:41:06;;;;;;;40.60;14.90;;;;;;;6.25;100.00;101232.16;5226636;28;20108;-78
2021/04/10 05:43:37;;;;;;;37.90;13.95;;;;;;;6.22;100.00;101233.28;5225799;28;20514;-79
2021/04/10 05:46:07;;;;;;;40.13;14.18;;;;;;;6.22;100.00;101238.63;5226020;28;20099;-80
2021/04/10 05:48:38;;;;;;;51.05;14.45;;;;;;;6.22;100.00;101241.28;5226289;28;20115;-81
2021/04/10 05:51:08;;;;;;;48.58;13.63;;;;;;;6.27;100.00;101246.19;5226375;28;20367;-79
2021/04/10 05:53:42;;;;;;;33.92;13.55;;;;;;;6.30;100.00;101256.59;5226051;28;20580;-79
2021/04/10 05:56:12;;;;;;;37.72;13.50;;;;;;;6.31;100.00;101252.97;5225419;28;20041;-79
2021/04/10 05:58:43;;;;;;;36.22;14.65;;;;;;;6.33;100.00;101256.38;5225687;28;20054;-79
2021/04/10 06:01:13;;;;;;;44.45;13.85;;;;;;;6.30;100.00;101259.28;5225802;28;20486;-79
2021/04/10 06:03:44;;;;;;;36.50;14.68;;;;;;;6.29;100.00;101265.59;5226126;28;20543;-79
2021/04/10 06:06:14;;;;;;;34.03;14.07;;;;;;;6.31;100.00;101260.97;5226840;28;20032;-77
2021/04/10 06:08:45;;;;;;;41.60;14.65;;;;;;;6.31;100.00;101265.44;5221342;28;20107;-79
2021/04/10 06:11:15;;;;;;;40.03;13.93;;;;;;;6.34;100.00;101273.19;5223089;28;20649;-77
2021/04/10 06:13:46;;;;;;;50.50;13.90;;;;;;;6.39;100.00;101271.84;5225601;28;20032;-79
2021/04/10 06:16:17;;;;;;;43.38;16.50;;;;;;;6.40;100.00;101275.34;5229824;28;20028;-78
2021/04/10 06:18:48;;;;;;;38.83;15.07;;;;;;;6.36;100.00;101277.41;5226486;28;20025;-78
2021/04/10 06:21:18;;;;;;;34.42;14.48;;;;;;;6.39;100.00;101277.16;5224800;28;20478;-77
2021/04/10 06:23:49;;;;;;;36.65;15.15;;;;;;;6.42;100.00;101278.69;5224995;28;20031;-77
2021/04/10 06:26:19;;;;;;;49.70;15.45;;;;;;;6.40;100.00;101280.66;5225374;28;20023;-77
2021/04/10 06:28:50;;;;;;;39.20;15.52;;;;;;;6.41;100.00;101280.53;5224954;28;20409;-77
2021/04/10 06:31:20;;;;;;;39.13;15.43;;;;;;;6.47;100.00;101272.00;5225085;28;20041;-79
2021/04/10 06:33:51;;;;;;;41.90;15.77;;;;;;;6.48;100.00;101276.38;5224691;28;20052;-79
2021/04/10 06:36:24;;;;;;;43.17;15.38;;;;;;;6.52;100.00;101276.97;5224876;28;20454;-78
2021/04/10 06:38:55;;;;;;;43.33;16.25;;;;;;;6.53;100.00;101276.00;5224871;28;20050;-79
2021/04/10 06:41:25;;;;;;;40.67;16.15;;;;;;;6.58;100.00;101276.47;5224585;28;20024;-78
2021/04/10 06:43:57;;;;;;;47.75;17.58;;;;;;;6.54;100.00;101280.34;5224513;28;20323;-76
2021/04/10 06:46:32;;;;;;;51.13;17.35;;;;;;;6.59;100.00;101274.63;5224783;28;20104;-77
2021/04/10 06:49:06;;;;;;;43.17;18.67;;;;;;;6.61;100.00;101270.84;5225105;28;20435;-78
2021/04/10 06:51:38;;;;;;;48.45;16.13;;;;;;;6.65;100.00;101277.63;5224686;28;20082;-77
2021/04/10 06:54:13;;;;;;;42.35;15.90;;;;;;;6.72;100.00;101280.59;5224868;28;20025;-77
2021/04/10 06:56:59;;;;;;;37.25;15.18;;;;;;;6.73;100.00;101283.16;5224671;28;20476;-77
2021/04/10 06:59:34;;;;;;;43.72;16.85;;;;;;;6.71;100.00;101281.59;5224402;28;20033;-78
2021/04/10 07:02:10;;;;;;;42.83;16.23;;;;;;;6.78;100.00;101285.44;5224866;28;20079;-79
2021/04/10 07:04:41;;;;;;;42.67;17.33;;;;;;;6.80;100.00;101286.13;5221730;28;20028;-79
2021/04/10 07:07:12;;;;;;;50.10;17.92;;;;;;;6.82;100.00;101294.00;5223654;28;20036;-77
2021/04/10 07:09:43;;;;;;;38.20;17.40;;;;;;;6.77;100.00;101282.88;5222506;28;20025;-77
2021/04/10 07:12:14;;;;;;;48.35;17.52;;;;;;;6.80;100.00;101291.47;5219589;28;20508;-79
2021/04/10 07:14:45;;;;;;;49.33;20.38;;;;;;;6.77;100.00;101283.72;5222589;28;20493;-78
2021/04/10 07:17:15;;;;;;;53.50;20.05;;;;;;;6.80;100.00;101294.13;5222852;28;20026;-77
2021/04/10 07:19:46;;;;;;;51.10;19.20;;;;;;;6.91;100.00;101283.38;5223902;28;20385;-80
2021/04/10 07:22:16;;;;;;;49.40;18.52;;;;;;;7.00;100.00;101292.44;5223253;28;20036;-79
2021/04/10 07:24:50;;;;;;;50.20;20.10;;;;;;;6.99;100.00;101288.06;5222970;28;20017;-78
2021/04/10 07:27:23;;;;;;;50.10;19.60;;;;;;;7.09;100.00;101290.78;5223500;28;20099;-79
2021/04/10 07:29:59;;;;;;;53.95;19.05;;;;;;;7.09;100.00;101296.97;5222742;28;20025;-77
2021/04/10 07:32:33;;;;;;;59.25;21.65;;;;;;;7.10;100.00;101292.47;5223427;28;20080;-78
2021/04/10 07:35:05;;;;;;;46.90;18.95;;;;;;;7.10;100.00;101292.47;5226800;28;20120;-78
2021/04/10 07:37:43;;;;;;;48.63;19.10;;;;;;;7.04;100.00;101295.69;5227199;28;20024;-78
2021/04/10 07:40:19;;;;;;;60.13;22.08;;;;;;;7.04;100.00;101298.34;5227069;28;20049;-78
2021/04/10 07:42:50;;;;;;;64.55;24.38;;;;;;;7.06;100.00;101296.38;5227759;28;20059;-79
2021/04/10 07:45:20;;;;;;;64.07;21.92;;;;;;;7.11;100.00;101286.16;5226766;28;20502;-79
2021/04/10 07:48:01;;;;;;;60.40;22.95;;;;;;;7.11;100.00;101288.81;5226852;28;20025;-79
2021/04/10 07:50:34;;;;;;;60.42;23.55;;;;;;;7.05;100.00;101297.38;5214434;28;20048;-80
2021/04/10 07:53:23;;;;;;;53.80;20.98;;;;;;;7.02;100.00;101293.13;5218622;28;20513;-78
2021/04/10 07:55:56;;;;;;;60.78;22.73;;;;;;;6.96;100.00;101293.66;5223979;28;20048;-79
2021/04/10 07:58:28;;;;;;;53.00;21.38;;;;;;;6.90;100.00;101300.38;5225190;28;20032;-79
2021/04/10 08:01:09;;;;;;;52.63;22.45;;;;;;;6.81;100.00;101301.16;5215694;28;20033;-79
2021/04/10 08:03:41;;;;;;;61.88;23.90;;;;;;;6.83;100.00;101301.00;5212801;28;20021;-79
2021/04/10 08:06:13;;;;;;;63.88;22.70;;;;;;;6.83;100.00;101296.56;5223366;28;20052;-78
2021/04/10 08:08:53;;;;;;;70.55;28.02;;;;;;;6.82;100.00;101292.16;5219572;28;20434;-78
2021/04/10 08:11:31;;;;;;;67.53;27.17;;;;;;;6.82;100.00;101302.00;5223276;28;20116;-82
2021/04/10 08:14:07;;;;;;;99.95;28.23;;;;;;;6.87;100.00;101311.28;5224791;28;20031;-81
2021/04/10 08:16:39;;;;;;;69.45;27.33;;;;;;;6.98;100.00;101297.91;5225212;28;20099;-79
2021/04/10 08:19:11;;;;;;;77.28;27.17;;;;;;;7.00;100.00;101303.94;5226439;28;20021;-80
2021/04/10 08:21:46;;;;;;;78.53;27.35;;;;;;;7.01;100.00;101300.28;5242339;28;20037;-79
2021/04/10 08:24:21;;;;;;;71.77;28.80;;;;;;;6.99;100.00;101296.91;5226099;28;20021;-79
2021/04/10 08:26:53;;;;;;;68.88;27.45;;;;;;;6.98;100.00;101303.25;5227527;28;20032;-78
2021/04/10 08:29:24;;;;;;;72.38;28.35;;;;;;;7.05;100.00;101300.88;5226291;28;20482;-79
2021/04/10 08:31:55;;;;;;;76.60;29.38;;;;;;;7.11;100.00;101310.16;5226558;28;20040;-79
2021/04/10 08:34:26;;;;;;;76.50;29.27;;;;;;;7.14;100.00;101294.75;5225544;28;20083;-78
2021/04/10 08:36:59;;;;;;;82.68;30.52;;;;;;;7.12;100.00;101304.69;5226062;28;20057;-80
2021/04/10 08:39:35;;;;;;;69.70;29.92;;;;;;;7.17;100.00;101304.28;5226198;28;20036;-79
2021/04/10 08:42:07;;;;;;;72.32;30.75;;;;;;;7.17;100.00;101306.97;5226392;28;20032;-79
2021/04/10 08:44:39;;;;;;;65.13;28.13;;;;;;;7.23;100.00;101304.63;5223346;28;20070;-79
2021/04/10 08:47:10;;;;;;;69.55;27.75;;;;;;;7.22;100.00;101305.59;5224671;28;20510;-80
2021/04/10 08:49:44;;;;;;;58.80;25.48;;;;;;;7.19;100.00;101302.38;5225994;28;20029;-80
2021/04/10 08:52:21;;;;;;;68.78;26.92;;;;;;;7.17;100.00;101297.13;5226794;28;20032;-79
2021/04/10 08:54:51;;;;;;;71.47;28.70;;;;;;;7.10;100.00;101292.47;5226652;28;20059;-80
2021/04/10 08:57:22;;;;;;;64.05;27.80;;;;;;;7.16;100.00;101289.28;5226187;28;20025;-78
2021/04/10 08:59:54;;;;;;;69.93;26.88;;;;;;;7.18;100.00;101287.34;5225683;28;20028;-79
2021/04/10 09:02:24;;;;;;;69.95;28.08;;;;;;;7.24;100.00;101294.81;5224696;28;20033;-79
2021/04/10 09:04:59;;;;;;;70.28;27.08;;;;;;;7.34;100.00;101292.19;5203455;28;20029;-79
2021/04/10 09:07:51;;;;;;;64.03;26.55;;;;;;;7.38;100.00;101288.22;5220586;28;20021;-79
2021/04/10 09:10:21;;;;;;;63.85;25.30;;;;;;;7.40;100.00;101289.81;5225023;28;20033;-79
2021/04/10 09:13:05;;;;;;;67.25;27.25;;;;;;;7.44;100.00;101293.91;5222360;28;20074;-79
2021/04/10 09:15:37;;;;;;;61.58;25.20;;;;;;;7.44;100.00;101290.38;5225211;28;20513;-79
2021/04/10 09:18:12;;;;;;;56.75;25.85;;;;;;;7.52;100.00;101293.22;5224965;28;20044;-79
2021/04/10 09:20:43;;;;;;;64.90;25.85;;;;;;;7.59;100.00;101288.19;5225274;28;20062;-79
2021/04/10 09:23:20;;;;;;;53.20;22.63;;;;;;;7.67;100.00;101291.84;5225070;28;20040;-81
2021/04/10 09:26:10;;;;;;;62.28;24.90;;;;;;;7.70;100.00;101290.75;5225242;28;20072;-80
2021/04/10 09:28:54;;;;;;;59.95;25.50;;;;;;;7.74;100.00;101292.16;5225335;28;20465;-80
2021/04/10 09:31:37;;;;;;;59.47;24.33;;;;;;;7.69;100.00;101297.06;5225076;28;20107;-81
2021/04/10 09:34:42;;;;;;;59.60;26.85;;;;;;;7.73;100.00;101298.47;5224608;28;20028;-79
2021/04/10 09:37:20;;;;;;;57.03;25.13;;;;;;;7.73;100.00;101293.13;5223192;28;20458;-79
2021/04/10 09:40:03;;;;;;;65.28;26.73;;;;;;;7.74;100.00;101294.84;5225454;28;20395;-80
2021/04/10 09:42:34;;;;;;;64.30;27.45;;;;;;;7.70;100.00;101296.91;5225110;28;20040;-80
2021/04/10 09:45:15;;;;;;;54.95;24.15;;;;;;;7.67;100.00;101285.66;5224773;28;20036;-78
2021/04/10 09:47:59;;;;;;;59.17;26.08;;;;;;;7.61;100.00;101289.72;5225736;28;20025;-80
2021/04/10 09:50:37;;;;;;;60.88;26.83;;;;;;;7.62;100.00;101294.06;5214281;28;20509;-80
2021/04/10 09:53:16;;;;;;;58.72;26.48;;;;;;;7.61;100.00;101278.19;5225879;28;20051;-81
2021/04/10 09:55:49;;;;;;;54.05;25.50;;;;;;;7.61;100.00;101276.38;5224848;28;20086;-79
2021/04/10 09:58:20;;;;;;;65.53;27.17;;;;;;;7.66;100.00;101278.63;5226677;28;20024;-81
2021/04/10 10:00:52;;;;;;;60.10;27.48;;;;;;;7.71;100.00;101279.06;5227156;28;20089;-80
2021/04/10 10:03:24;;;;;;;55.55;26.90;;;;;;;7.73;100.00;101271.75;5225587;28;20052;-79
2021/04/10 10:05:55;;;;;;;60.92;24.92;;;;;;;7.79;100.00;101271.22;5224922;28;20025;-80
2021/04/10 10:08:31;;;;;;;60.58;25.33;;;;;;;7.83;100.00;101267.31;5223876;28;20497;-79
2021/04/10 10:11:06;;;;;;;55.38;24.80;;;;;;;7.89;100.00;101258.72;5219904;28;20032;-80
2021/04/10 10:13:37;;;;;;;52.85;25.15;;;;;;;7.93;100.00;101265.50;5224702;28;20044;-81
2021/04/10 10:16:08;;;;;;;56.70;26.23;;;;;;;8.10;100.00;101258.59;5224445;28;20078;-80
2021/04/10 10:18:41;;;;;;;56.08;24.88;;;;;;;8.18;100.00;101256.09;5224138;28;20129;-79
2021/04/10 10:21:15;;;;;;;56.55;26.42;;;;;;;8.20;100.00;101251.44;5228892;28;20112;-79
2021/04/10 10:23:49;;;;;;;58.28;25.17;;;;;;;8.29;100.00;101244.41;5225594;28;20084;-80
2021/04/10 10:26:29;;;;;;;58.30;25.27;;;;;;;8.38;100.00;101246.22;5224279;28;20363;-77
2021/04/10 10:29:04;;;;;;;53.80;26.05;;;;;;;8.40;100.00;101235.41;5223415;28;20082;-78
2021/04/10 10:31:47;;;;;;;55.42;24.40;;;;;;;8.32;100.00;101233.41;5224025;28;20033;-79
2021/04/10 10:34:21;;;;;;;49.75;24.63;;;;;;;8.29;100.00;101233.72;5223952;28;20060;-81
2021/04/10 10:36:53;;;;;;;51.58;24.13;;;;;;;8.21;100.00;101234.41;5223089;28;20437;-80
2021/04/10 10:39:32;;;;;;;54.03;25.60;;;;;;;8.08;100.00;101224.97;5223842;28;20056;-80
2021/04/10 10:42:05;;;;;;;51.30;23.60;;;;;;;8.07;100.00;101229.47;5223756;28;20593;-79
2021/04/10 10:44:36;;;;;;;54.50;25.00;;;;;;;8.09;100.00;101222.19;5223583;28;20513;-80
2021/04/10 10:47:08;;;;;;;53.88;23.95;;;;;;;8.16;100.00;101222.44;5224157;28;20025;-79
2021/04/10 10:49:38;;;;;;;50.10;23.38;;;;;;;8.24;100.00;101220.75;5223071;28;20021;-80
2021/04/10 10:52:16;;;;;;;50.28;23.60;;;;;;;8.42;100.00;101212.88;5223669;28;20021;-79
2021/04/10 10:54:47;;;;;;;49.00;22.77;;;;;;;8.42;100.00;101215.56;5223907;28;20079;-78
2021/04/10 10:57:18;;;;;;;45.72;22.13;;;;;;;8.40;100.00;101214.03;5223710;28;20432;-80
2021/04/10 10:59:48;;;;;;;52.53;22.65;;;;;;;8.32;100.00;101206.66;5222983;28;20344;-79
2021/04/10 11:02:19;;;;;;;48.85;22.73;;;;;;;8.29;100.00;101207.81;5223547;28;20082;-79
2021/04/10 11:04:52;;;;;;;47.70;22.70;;;;;;;8.30;100.00;101200.63;5228772;28;20020;-77
2021/04/10 11:07:24;;;;;;;47.15;22.73;;;;;;;8.33;100.00;101194.97;5230087;28;20100;-80
2021/04/10 11:09:56;;;;;;;49.85;22.67;;;;;;;8.19;100.00;101196.28;5219980;28;20025;-79
2021/04/10 11:12:27;;;;;;;46.58;22.08;;;;;;;8.21;100.00;101190.78;5214560;28;20032;-79
2021/04/10 11:14:59;;;;;;;46.85;21.92;;;;;;;8.26;100.00;101185.88;5206020;28;20033;-79
2021/04/10 11:17:31;;;;;;;44.42;21.65;;;;;;;8.23;100.00;101194.16;5223295;28;20063;-80
2021/04/10 11:20:33;;;;;;;45.47;22.42;;;;;;;8.19;100.00;101195.44;5218319;28;20021;-80
2021/04/10 11:23:06;;;;;;;42.25;22.35;;;;;;;8.26;100.00;101186.72;5228181;28;20591;-77
2021/04/10 11:25:49;;;;;;;46.10;21.23;;;;;;;8.37;100.00;101187.56;5217667;28;20041;-78
2021/04/10 11:28:31;;;;;;;42.63;21.52;;;;;;;8.25;100.00;101177.00;5217305;28;20085;-80
2021/04/10 11:31:04;;;;;;;47.83;21.63;;;;;;;8.20;100.00;101173.06;5228322;28;20479;-79
2021/04/10 11:33:36;;;;;;;41.88;22.75;;;;;;;8.15;100.00;101178.84;5214431;28;20032;-80
2021/04/10 11:36:06;;;;;;;45.55;22.42;;;;;;;8.10;100.00;101170.41;5227294;28;20024;-79